sensor_id;sensor_type;location;lat;lon;timestamp;temperature;humidity
8664;DHT22;4369;47.842;13.096;2023-02-15T00:00:27;0.40;99.90
8664;DHT22;4369;47.842;13.096;2023-02-15T00:02:54;0.40;99.90
8664;DHT22;4369;47.842;13.096;2023-02-15T00:05:20;0.50;99.90
8664;DHT22;4369;47.842;13.096;2023-02-15T00:07:47;0.50;99.90
8664;DHT22;4369;47.842;13.096;2023-02-15T00:10:14;0.40;99.90
8664;DHT22;4369;47.842;13.096;2023-02-15T00:12:42;0.40;99.90
8664;DHT22;4369;47.842;13.096;2023-02-15T00:15:10;0.30;99.90
8664;DHT22;4369;47.842;13.096;2023-02-15T00:17:39;0.30;99.90
8664;DHT22;4369;47.842;13.096;2023-02-15T00:20:07;0.20;99.90
8664;DHT22;4369;47.842;13.096;2023-02-15T00:22:34;0.20;99.90
8664;DHT22;4369;47.842;13.096;2023-02-15T00:25:02;0.10;99.90
8664;DHT22;4369;47.842;13.096;2023-02-15T00:27:29;0.10;99.90
8664;DHT22;4369;47.842;13.096;2023-02-15T00:29:56;0.10;99.90
8664;DHT22;4369;47.842;13.096;2023-02-15T00:32:23;0.00;99.90
8664;DHT22;4369;47.842;13.096;2023-02-15T00:34:51;0.00;99.90
8664;DHT22;4369;47.842;13.096;2023-02-15T00:37:17;0.00;99.90
8664;DHT22;4369;47.842;13.096;2023-02-15T00:39:44;0.00;99.90
8664;DHT22;4369;47.842;13.096;2023-02-15T00:42:11;0.00;99.90
8664;DHT22;4369;47.842;13.096;2023-02-15T00:44:38;-0.10;99.90
8664;DHT22;4369;47.842;13.096;2023-02-15T00:47:05;-0.20;99.90
8664;DHT22;4369;47.842;13.096;2023-02-15T00:49:31;-0.30;99.90
8664;DHT22;4369;47.842;13.096;2023-02-15T00:52:00;-0.40;99.90
8664;DHT22;4369;47.842;13.096;2023-02-15T00:54:26;-0.50;99.90
8664;DHT22;4369;47.842;13.096;2023-02-15T00:56:53;-0.60;99.90
8664;DHT22;4369;47.842;13.096;2023-02-15T00:59:20;-0.60;99.90
8664;DHT22;4369;47.842;13.096;2023-02-15T01:01:47;-0.60;99.90
8664;DHT22;4369;47.842;13.096;2023-02-15T01:04:14;-0.50;99.90
8664;DHT22;4369;47.842;13.096;2023-02-15T01:06:40;-0.50;99.90
8664;DHT22;4369;47.842;13.096;2023-02-15T01:09:09;-0.50;99.90
8664;DHT22;4369;47.842;13.096;2023-02-15T01:11:35;-0.50;99.90
8664;DHT22;4369;47.842;13.096;2023-02-15T01:14:02;-0.50;99.90
8664;DHT22;4369;47.842;13.096;2023-02-15T01:16:31;-0.50;99.90
8664;DHT22;4369;47.842;13.096;2023-02-15T01:18:57;-0.50;99.90
8664;DHT22;4369;47.842;13.096;2023-02-15T01:21:25;-0.50;99.90
8664;DHT22;4369;47.842;13.096;2023-02-15T01:23:52;-0.50;99.90
8664;DHT22;4369;47.842;13.096;2023-02-15T01:26:21;-0.50;99.90
8664;DHT22;4369;47.842;13.096;2023-02-15T01:28:47;-0.60;99.90
8664;DHT22;4369;47.842;13.096;2023-02-15T01:31:16;-0.60;99.90
8664;DHT22;4369;47.842;13.096;2023-02-15T01:33:43;-0.80;99.90
8664;DHT22;4369;47.842;13.096;2023-02-15T01:36:10;-0.80;99.90
8664;DHT22;4369;47.842;13.096;2023-02-15T01:38:37;-0.80;99.90
8664;DHT22;4369;47.842;13.096;2023-02-15T01:41:05;-0.70;99.90
8664;DHT22;4369;47.842;13.096;2023-02-15T01:43:52;-0.60;99.90
8664;DHT22;4369;47.842;13.096;2023-02-15T01:46:22;-0.60;99.90
8664;DHT22;4369;47.842;13.096;2023-02-15T01:48:52;-0.50;99.90
8664;DHT22;4369;47.842;13.096;2023-02-15T01:51:23;-0.40;99.90
8664;DHT22;4369;47.842;13.096;2023-02-15T01:53:53;-0.40;99.90
8664;DHT22;4369;47.842;13.096;2023-02-15T01:56:24;-0.30;99.90
8664;DHT22;4369;47.842;13.096;2023-02-15T01:58:54;-0.40;99.90
8664;DHT22;4369;47.842;13.096;2023-02-15T02:01:24;-0.40;99.90
8664;DHT22;4369;47.842;13.096;2023-02-15T02:03:59;-0.50;99.90
8664;DHT22;4369;47.842;13.096;2023-02-15T02:06:28;-0.50;99.90
8664;DHT22;4369;47.842;13.096;2023-02-15T02:08:56;-0.50;99.90
8664;DHT22;4369;47.842;13.096;2023-02-15T02:11:23;-0.50;99.90
8664;DHT22;4369;47.842;13.096;2023-02-15T02:13:53;-0.50;99.90
8664;DHT22;4369;47.842;13.096;2023-02-15T02:16:23;-0.60;99.90
8664;DHT22;4369;47.842;13.096;2023-02-15T02:19:05;-0.70;99.90
8664;DHT22;4369;47.842;13.096;2023-02-15T02:25:18;-0.60;99.90
8664;DHT22;4369;47.842;13.096;2023-02-15T02:27:57;-0.60;99.90
8664;DHT22;4369;47.842;13.096;2023-02-15T02:30:49;-0.60;99.90
8664;DHT22;4369;47.842;13.096;2023-02-15T02:33:46;-0.60;99.90
8664;DHT22;4369;47.842;13.096;2023-02-15T02:36:18;-0.60;99.90
8664;DHT22;4369;47.842;13.096;2023-02-15T02:38:56;-0.60;99.90
8664;DHT22;4369;47.842;13.096;2023-02-15T02:41:32;-0.60;99.90
8664;DHT22;4369;47.842;13.096;2023-02-15T02:44:09;-0.70;99.90
8664;DHT22;4369;47.842;13.096;2023-02-15T02:46:39;-0.80;99.90
8664;DHT22;4369;47.842;13.096;2023-02-15T02:49:12;-0.80;99.90
8664;DHT22;4369;47.842;13.096;2023-02-15T02:51:38;-0.90;99.90
8664;DHT22;4369;47.842;13.096;2023-02-15T02:54:06;-0.90;99.90
8664;DHT22;4369;47.842;13.096;2023-02-15T02:56:37;-0.80;99.90
8664;DHT22;4369;47.842;13.096;2023-02-15T02:59:08;-0.80;99.90
8664;DHT22;4369;47.842;13.096;2023-02-15T03:01:41;-0.80;99.90
8664;DHT22;4369;47.842;13.096;2023-02-15T03:04:14;-0.90;99.90
8664;DHT22;4369;47.842;13.096;2023-02-15T03:06:46;-1.00;99.90
8664;DHT22;4369;47.842;13.096;2023-02-15T03:09:17;-1.10;99.90
8664;DHT22;4369;47.842;13.096;2023-02-15T03:11:46;-1.20;99.90
8664;DHT22;4369;47.842;13.096;2023-02-15T03:14:14;-1.20;99.90
8664;DHT22;4369;47.842;13.096;2023-02-15T03:16:44;-1.20;99.90
8664;DHT22;4369;47.842;13.096;2023-02-15T03:19:17;-1.20;99.90
8664;DHT22;4369;47.842;13.096;2023-02-15T03:21:48;-1.10;99.90
8664;DHT22;4369;47.842;13.096;2023-02-15T03:24:24;-1.10;99.90
8664;DHT22;4369;47.842;13.096;2023-02-15T03:26:53;-1.00;99.90
8664;DHT22;4369;47.842;13.096;2023-02-15T03:29:23;-1.00;99.90
8664;DHT22;4369;47.842;13.096;2023-02-15T03:31:56;-0.90;99.90
8664;DHT22;4369;47.842;13.096;2023-02-15T03:34:26;-0.80;99.90
8664;DHT22;4369;47.842;13.096;2023-02-15T03:37:00;-0.80;99.90
8664;DHT22;4369;47.842;13.096;2023-02-15T03:39:33;-0.70;99.90
8664;DHT22;4369;47.842;13.096;2023-02-15T03:42:08;-0.60;99.90
8664;DHT22;4369;47.842;13.096;2023-02-15T03:44:41;-0.60;99.90
8664;DHT22;4369;47.842;13.096;2023-02-15T03:47:13;-0.60;99.90
8664;DHT22;4369;47.842;13.096;2023-02-15T03:49:45;-0.50;99.90
8664;DHT22;4369;47.842;13.096;2023-02-15T03:52:14;-0.50;99.90
8664;DHT22;4369;47.842;13.096;2023-02-15T03:54:41;-0.50;99.90
8664;DHT22;4369;47.842;13.096;2023-02-15T03:57:12;-0.50;99.90
8664;DHT22;4369;47.842;13.096;2023-02-15T03:59:57;-0.40;99.90
8664;DHT22;4369;47.842;13.096;2023-02-15T04:02:49;-0.40;99.90
8664;DHT22;4369;47.842;13.096;2023-02-15T04:05:20;-0.50;99.90
8664;DHT22;4369;47.842;13.096;2023-02-15T04:07:47;-0.50;99.90
8664;DHT22;4369;47.842;13.096;2023-02-15T04:10:14;-0.50;99.90
8664;DHT22;4369;47.842;13.096;2023-02-15T04:12:58;-0.60;99.90
8664;DHT22;4369;47.842;13.096;2023-02-15T04:15:25;-0.80;99.90
8664;DHT22;4369;47.842;13.096;2023-02-15T04:18:10;-0.90;99.90
8664;DHT22;4369;47.842;13.096;2023-02-15T04:20:38;-0.90;99.90
8664;DHT22;4369;47.842;13.096;2023-02-15T04:23:22;-0.80;99.90
8664;DHT22;4369;47.842;13.096;2023-02-15T04:26:06;-0.80;99.90
8664;DHT22;4369;47.842;13.096;2023-02-15T04:28:33;-0.80;99.90
8664;DHT22;4369;47.842;13.096;2023-02-15T04:31:00;-0.80;99.90
8664;DHT22;4369;47.842;13.096;2023-02-15T04:33:26;-0.70;99.90
8664;DHT22;4369;47.842;13.096;2023-02-15T04:35:55;-0.70;99.90
8664;DHT22;4369;47.842;13.096;2023-02-15T04:38:22;-0.70;99.90
8664;DHT22;4369;47.842;13.096;2023-02-15T04:40:50;-0.70;99.90
8664;DHT22;4369;47.842;13.096;2023-02-15T04:43:17;-0.80;99.90
8664;DHT22;4369;47.842;13.096;2023-02-15T04:45:48;-0.90;99.90
8664;DHT22;4369;47.842;13.096;2023-02-15T04:48:16;-0.90;99.90
8664;DHT22;4369;47.842;13.096;2023-02-15T04:50:43;-1.10;99.90
8664;DHT22;4369;47.842;13.096;2023-02-15T04:53:11;-1.10;99.90
8664;DHT22;4369;47.842;13.096;2023-02-15T04:55:39;-1.10;99.90
8664;DHT22;4369;47.842;13.096;2023-02-15T04:58:05;-1.00;99.90
8664;DHT22;4369;47.842;13.096;2023-02-15T05:00:32;-0.90;99.90
8664;DHT22;4369;47.842;13.096;2023-02-15T05:02:59;-1.00;99.90
8664;DHT22;4369;47.842;13.096;2023-02-15T05:05:26;-1.00;99.90
8664;DHT22;4369;47.842;13.096;2023-02-15T05:07:53;-1.10;99.90
8664;DHT22;4369;47.842;13.096;2023-02-15T05:10:21;-1.20;99.90
8664;DHT22;4369;47.842;13.096;2023-02-15T05:12:48;-1.20;99.90
8664;DHT22;4369;47.842;13.096;2023-02-15T05:15:15;-1.10;99.90
8664;DHT22;4369;47.842;13.096;2023-02-15T05:17:42;-1.10;99.90
8664;DHT22;4369;47.842;13.096;2023-02-15T05:20:09;-1.20;99.90
8664;DHT22;4369;47.842;13.096;2023-02-15T05:22:36;-1.20;99.90
8664;DHT22;4369;47.842;13.096;2023-02-15T05:25:03;-1.30;99.90
8664;DHT22;4369;47.842;13.096;2023-02-15T05:27:49;-1.30;99.90
8664;DHT22;4369;47.842;13.096;2023-02-15T05:30:33;-1.20;99.90
8664;DHT22;4369;47.842;13.096;2023-02-15T05:33:00;-1.20;99.90
8664;DHT22;4369;47.842;13.096;2023-02-15T05:35:27;-1.20;99.90
8664;DHT22;4369;47.842;13.096;2023-02-15T05:37:53;-1.20;99.90
8664;DHT22;4369;47.842;13.096;2023-02-15T05:40:20;-1.20;99.90
8664;DHT22;4369;47.842;13.096;2023-02-15T05:42:48;-1.20;99.90
8664;DHT22;4369;47.842;13.096;2023-02-15T05:45:15;-1.20;99.90
8664;DHT22;4369;47.842;13.096;2023-02-15T05:47:42;-1.20;99.90
8664;DHT22;4369;47.842;13.096;2023-02-15T05:50:10;-1.10;99.90
8664;DHT22;4369;47.842;13.096;2023-02-15T05:52:37;-1.10;99.90
8664;DHT22;4369;47.842;13.096;2023-02-15T05:55:05;-1.30;99.90
8664;DHT22;4369;47.842;13.096;2023-02-15T05:57:32;-1.40;99.90
8664;DHT22;4369;47.842;13.096;2023-02-15T06:00:01;-1.50;99.90
8664;DHT22;4369;47.842;13.096;2023-02-15T06:02:29;-1.60;99.90
8664;DHT22;4369;47.842;13.096;2023-02-15T06:04:59;-1.50;99.90
8664;DHT22;4369;47.842;13.096;2023-02-15T06:07:26;-1.40;99.90
8664;DHT22;4369;47.842;13.096;2023-02-15T06:09:53;-1.40;99.90
8664;DHT22;4369;47.842;13.096;2023-02-15T06:12:20;-1.40;99.90
8664;DHT22;4369;47.842;13.096;2023-02-15T06:14:46;-1.30;99.90
8664;DHT22;4369;47.842;13.096;2023-02-15T06:17:15;-1.30;99.90
8664;DHT22;4369;47.842;13.096;2023-02-15T06:19:42;-1.20;99.90
8664;DHT22;4369;47.842;13.096;2023-02-15T06:22:09;-1.30;99.90
8664;DHT22;4369;47.842;13.096;2023-02-15T06:24:36;-1.30;99.90
8664;DHT22;4369;47.842;13.096;2023-02-15T06:27:03;-1.20;99.90
8664;DHT22;4369;47.842;13.096;2023-02-15T06:29:30;-1.20;99.90
8664;DHT22;4369;47.842;13.096;2023-02-15T06:31:56;-1.20;99.90
8664;DHT22;4369;47.842;13.096;2023-02-15T06:34:24;-1.20;99.90
8664;DHT22;4369;47.842;13.096;2023-02-15T06:36:51;-1.10;99.90
8664;DHT22;4369;47.842;13.096;2023-02-15T06:39:18;-1.10;99.90
8664;DHT22;4369;47.842;13.096;2023-02-15T06:41:45;-1.10;99.90
8664;DHT22;4369;47.842;13.096;2023-02-15T06:44:12;-1.40;99.90
8664;DHT22;4369;47.842;13.096;2023-02-15T06:46:38;-1.30;99.90
8664;DHT22;4369;47.842;13.096;2023-02-15T06:49:06;-1.30;99.90
8664;DHT22;4369;47.842;13.096;2023-02-15T06:51:34;-1.40;99.90
8664;DHT22;4369;47.842;13.096;2023-02-15T06:54:00;-1.50;99.90
8664;DHT22;4369;47.842;13.096;2023-02-15T06:56:27;-1.50;99.90
8664;DHT22;4369;47.842;13.096;2023-02-15T06:58:54;-1.50;99.90
8664;DHT22;4369;47.842;13.096;2023-02-15T07:01:21;-1.50;99.90
8664;DHT22;4369;47.842;13.096;2023-02-15T07:03:48;-1.60;99.90
8664;DHT22;4369;47.842;13.096;2023-02-15T07:06:15;-1.60;99.90
8664;DHT22;4369;47.842;13.096;2023-02-15T07:08:43;-1.60;99.90
8664;DHT22;4369;47.842;13.096;2023-02-15T07:11:10;-1.60;99.90
8664;DHT22;4369;47.842;13.096;2023-02-15T07:13:54;-1.60;99.90
8664;DHT22;4369;47.842;13.096;2023-02-15T07:16:21;-1.60;99.90
8664;DHT22;4369;47.842;13.096;2023-02-15T07:18:48;-1.60;99.90
8664;DHT22;4369;47.842;13.096;2023-02-15T07:21:15;-1.60;99.90
8664;DHT22;4369;47.842;13.096;2023-02-15T07:23:43;-1.60;99.90
8664;DHT22;4369;47.842;13.096;2023-02-15T07:26:10;-1.50;99.90
8664;DHT22;4369;47.842;13.096;2023-02-15T07:28:37;-1.50;99.90
8664;DHT22;4369;47.842;13.096;2023-02-15T07:31:04;-1.40;99.90
8664;DHT22;4369;47.842;13.096;2023-02-15T07:33:32;-1.40;99.90
8664;DHT22;4369;47.842;13.096;2023-02-15T07:36:00;-1.20;99.90
8664;DHT22;4369;47.842;13.096;2023-02-15T07:38:30;-1.10;99.90
8664;DHT22;4369;47.842;13.096;2023-02-15T07:40:59;-0.90;99.90
8664;DHT22;4369;47.842;13.096;2023-02-15T07:43:26;-0.80;99.90
8664;DHT22;4369;47.842;13.096;2023-02-15T07:45:53;-0.80;99.90
8664;DHT22;4369;47.842;13.096;2023-02-15T07:48:20;-0.70;99.90
8664;DHT22;4369;47.842;13.096;2023-02-15T07:50:47;-0.70;99.90
8664;DHT22;4369;47.842;13.096;2023-02-15T07:53:14;-0.60;99.90
8664;DHT22;4369;47.842;13.096;2023-02-15T07:55:41;-0.50;99.90
8664;DHT22;4369;47.842;13.096;2023-02-15T07:58:09;-0.50;99.90
8664;DHT22;4369;47.842;13.096;2023-02-15T08:00:36;-0.50;99.90
8664;DHT22;4369;47.842;13.096;2023-02-15T08:03:23;-0.50;99.90
8664;DHT22;4369;47.842;13.096;2023-02-15T08:05:55;-0.40;99.90
8664;DHT22;4369;47.842;13.096;2023-02-15T08:08:22;-0.30;99.90
8664;DHT22;4369;47.842;13.096;2023-02-15T08:10:59;-0.20;99.90
8664;DHT22;4369;47.842;13.096;2023-02-15T08:13:46;-0.10;99.90
8664;DHT22;4369;47.842;13.096;2023-02-15T08:16:25;0.00;99.90
8664;DHT22;4369;47.842;13.096;2023-02-15T08:18:53;-0.10;99.90
8664;DHT22;4369;47.842;13.096;2023-02-15T08:21:21;-0.10;99.90
8664;DHT22;4369;47.842;13.096;2023-02-15T08:23:47;0.10;99.90
8664;DHT22;4369;47.842;13.096;2023-02-15T08:26:14;0.40;99.90
8664;DHT22;4369;47.842;13.096;2023-02-15T08:28:42;0.50;99.90
8664;DHT22;4369;47.842;13.096;2023-02-15T08:31:12;0.50;99.90
8664;DHT22;4369;47.842;13.096;2023-02-15T08:33:40;0.70;99.90
8664;DHT22;4369;47.842;13.096;2023-02-15T08:36:10;0.80;99.90
8664;DHT22;4369;47.842;13.096;2023-02-15T08:38:37;0.80;99.90
8664;DHT22;4369;47.842;13.096;2023-02-15T08:41:12;0.80;99.90
8664;DHT22;4369;47.842;13.096;2023-02-15T08:43:39;1.10;99.90
8664;DHT22;4369;47.842;13.096;2023-02-15T08:46:06;1.20;99.90
8664;DHT22;4369;47.842;13.096;2023-02-15T08:48:35;1.20;99.90
8664;DHT22;4369;47.842;13.096;2023-02-15T08:51:06;1.20;99.90
8664;DHT22;4369;47.842;13.096;2023-02-15T08:53:33;1.20;99.90
8664;DHT22;4369;47.842;13.096;2023-02-15T08:56:00;1.10;99.90
8664;DHT22;4369;47.842;13.096;2023-02-15T08:58:28;1.10;99.90
8664;DHT22;4369;47.842;13.096;2023-02-15T09:00:56;1.30;99.90
8664;DHT22;4369;47.842;13.096;2023-02-15T09:03:23;1.40;99.90
8664;DHT22;4369;47.842;13.096;2023-02-15T09:05:57;1.40;99.90
8664;DHT22;4369;47.842;13.096;2023-02-15T09:08:24;1.60;99.90
8664;DHT22;4369;47.842;13.096;2023-02-15T09:10:50;1.80;99.90
8664;DHT22;4369;47.842;13.096;2023-02-15T09:13:17;2.10;99.90
8664;DHT22;4369;47.842;13.096;2023-02-15T09:15:45;2.20;99.90
8664;DHT22;4369;47.842;13.096;2023-02-15T09:18:13;2.30;99.90
8664;DHT22;4369;47.842;13.096;2023-02-15T09:20:43;2.30;99.90
8664;DHT22;4369;47.842;13.096;2023-02-15T09:23:11;2.50;99.90
8664;DHT22;4369;47.842;13.096;2023-02-15T09:25:38;2.80;99.90
8664;DHT22;4369;47.842;13.096;2023-02-15T09:28:04;2.50;99.90
8664;DHT22;4369;47.842;13.096;2023-02-15T09:30:31;2.60;99.90
8664;DHT22;4369;47.842;13.096;2023-02-15T09:32:58;2.60;99.90
8664;DHT22;4369;47.842;13.096;2023-02-15T09:35:25;2.70;99.90
8664;DHT22;4369;47.842;13.096;2023-02-15T09:37:52;2.80;99.90
8664;DHT22;4369;47.842;13.096;2023-02-15T09:40:20;2.90;99.90
8664;DHT22;4369;47.842;13.096;2023-02-15T09:43:06;3.20;99.90
8664;DHT22;4369;47.842;13.096;2023-02-15T09:45:47;3.50;99.90
8664;DHT22;4369;47.842;13.096;2023-02-15T09:48:40;3.70;99.90
8664;DHT22;4369;47.842;13.096;2023-02-15T09:51:22;4.00;99.90
8664;DHT22;4369;47.842;13.096;2023-02-15T09:54:09;4.00;99.90
8664;DHT22;4369;47.842;13.096;2023-02-15T09:56:41;3.90;99.90
8664;DHT22;4369;47.842;13.096;2023-02-15T09:59:14;4.00;99.90
8664;DHT22;4369;47.842;13.096;2023-02-15T10:01:47;4.20;99.90
8664;DHT22;4369;47.842;13.096;2023-02-15T10:04:34;4.40;99.90
8664;DHT22;4369;47.842;13.096;2023-02-15T10:07:14;4.60;99.90
8664;DHT22;4369;47.842;13.096;2023-02-15T10:09:59;4.60;99.90
8664;DHT22;4369;47.842;13.096;2023-02-15T10:12:44;4.60;99.90
8664;DHT22;4369;47.842;13.096;2023-02-15T10:15:27;5.10;99.90
8664;DHT22;4369;47.842;13.096;2023-02-15T10:18:11;5.60;99.90
8664;DHT22;4369;47.842;13.096;2023-02-15T10:20:46;6.00;99.90
8664;DHT22;4369;47.842;13.096;2023-02-15T10:23:39;6.40;99.90
8664;DHT22;4369;47.842;13.096;2023-02-15T10:26:17;6.50;99.90
8664;DHT22;4369;47.842;13.096;2023-02-15T10:28:48;6.60;99.90
8664;DHT22;4369;47.842;13.096;2023-02-15T10:31:23;6.80;99.90
8664;DHT22;4369;47.842;13.096;2023-02-15T10:34:02;7.20;99.90
8664;DHT22;4369;47.842;13.096;2023-02-15T10:36:43;7.20;99.90
8664;DHT22;4369;47.842;13.096;2023-02-15T10:39:20;7.30;99.90
8664;DHT22;4369;47.842;13.096;2023-02-15T10:41:55;7.20;99.90
8664;DHT22;4369;47.842;13.096;2023-02-15T10:44:38;7.30;99.90
8664;DHT22;4369;47.842;13.096;2023-02-15T10:47:26;7.30;99.90
8664;DHT22;4369;47.842;13.096;2023-02-15T10:50:11;7.40;99.90
8664;DHT22;4369;47.842;13.096;2023-02-15T10:52:50;7.50;99.90
8664;DHT22;4369;47.842;13.096;2023-02-15T10:55:29;7.40;99.90
8664;DHT22;4369;47.842;13.096;2023-02-15T10:58:05;7.60;99.90
8664;DHT22;4369;47.842;13.096;2023-02-15T11:00:38;7.60;99.90
8664;DHT22;4369;47.842;13.096;2023-02-15T11:03:28;7.60;99.90
8664;DHT22;4369;47.842;13.096;2023-02-15T11:06:02;7.70;99.90
8664;DHT22;4369;47.842;13.096;2023-02-15T11:08:34;7.80;99.90
8664;DHT22;4369;47.842;13.096;2023-02-15T11:11:05;8.10;99.90
8664;DHT22;4369;47.842;13.096;2023-02-15T11:13:36;8.50;99.90
8664;DHT22;4369;47.842;13.096;2023-02-15T11:16:10;8.60;99.90
8664;DHT22;4369;47.842;13.096;2023-02-15T11:18:41;8.90;99.90
8664;DHT22;4369;47.842;13.096;2023-02-15T11:21:12;9.30;99.90
8664;DHT22;4369;47.842;13.096;2023-02-15T11:23:44;10.60;99.90
8664;DHT22;4369;47.842;13.096;2023-02-15T11:26:14;11.70;99.90
8664;DHT22;4369;47.842;13.096;2023-02-15T11:28:45;13.90;94.40
8664;DHT22;4369;47.842;13.096;2023-02-15T11:31:17;16.50;81.10
8664;DHT22;4369;47.842;13.096;2023-02-15T11:33:47;19.10;63.70
8664;DHT22;4369;47.842;13.096;2023-02-15T11:36:18;21.70;55.50
8664;DHT22;4369;47.842;13.096;2023-02-15T11:38:49;24.50;49.10
8664;DHT22;4369;47.842;13.096;2023-02-15T11:41:21;26.30;42.00
8664;DHT22;4369;47.842;13.096;2023-02-15T11:43:53;28.90;38.00
8664;DHT22;4369;47.842;13.096;2023-02-15T11:46:22;31.20;34.10
8664;DHT22;4369;47.842;13.096;2023-02-15T11:48:49;34.30;30.00
8664;DHT22;4369;47.842;13.096;2023-02-15T11:51:18;36.60;28.30
8664;DHT22;4369;47.842;13.096;2023-02-15T11:53:46;38.80;26.50
8664;DHT22;4369;47.842;13.096;2023-02-15T11:56:14;39.70;25.40
8664;DHT22;4369;47.842;13.096;2023-02-15T11:58:44;41.30;24.30
8664;DHT22;4369;47.842;13.096;2023-02-15T12:01:16;41.70;23.00
8664;DHT22;4369;47.842;13.096;2023-02-15T12:03:46;41.20;22.80
8664;DHT22;4369;47.842;13.096;2023-02-15T12:06:20;43.30;22.50
8664;DHT22;4369;47.842;13.096;2023-02-15T12:08:55;44.20;21.80
8664;DHT22;4369;47.842;13.096;2023-02-15T12:11:29;44.10;21.60
8664;DHT22;4369;47.842;13.096;2023-02-15T12:13:58;44.40;21.50
8664;DHT22;4369;47.842;13.096;2023-02-15T12:16:27;45.90;21.20
8664;DHT22;4369;47.842;13.096;2023-02-15T12:18:58;45.10;20.50
8664;DHT22;4369;47.842;13.096;2023-02-15T12:21:28;45.70;20.70
8664;DHT22;4369;47.842;13.096;2023-02-15T12:23:58;46.70;20.30
8664;DHT22;4369;47.842;13.096;2023-02-15T12:26:28;46.70;19.90
8664;DHT22;4369;47.842;13.096;2023-02-15T12:28:58;47.20;20.00
8664;DHT22;4369;47.842;13.096;2023-02-15T12:31:30;47.20;19.40
8664;DHT22;4369;47.842;13.096;2023-02-15T12:34:02;45.60;20.00
8664;DHT22;4369;47.842;13.096;2023-02-15T12:36:33;46.50;20.00
8664;DHT22;4369;47.842;13.096;2023-02-15T12:39:21;46.10;19.80
8664;DHT22;4369;47.842;13.096;2023-02-15T12:42:04;46.00;19.80
8664;DHT22;4369;47.842;13.096;2023-02-15T12:44:33;46.60;19.90
8664;DHT22;4369;47.842;13.096;2023-02-15T12:47:03;45.80;19.90
8664;DHT22;4369;47.842;13.096;2023-02-15T12:49:32;44.60;20.10
8664;DHT22;4369;47.842;13.096;2023-02-15T12:52:00;43.50;20.30
8664;DHT22;4369;47.842;13.096;2023-02-15T12:54:36;43.60;20.10
8664;DHT22;4369;47.842;13.096;2023-02-15T12:57:25;43.70;20.40
8664;DHT22;4369;47.842;13.096;2023-02-15T12:59:54;44.00;20.20
8664;DHT22;4369;47.842;13.096;2023-02-15T13:02:27;43.80;20.10
8664;DHT22;4369;47.842;13.096;2023-02-15T13:04:57;41.70;21.10
8664;DHT22;4369;47.842;13.096;2023-02-15T13:07:30;40.30;21.20
8664;DHT22;4369;47.842;13.096;2023-02-15T13:09:58;39.50;21.50
8664;DHT22;4369;47.842;13.096;2023-02-15T13:12:27;38.60;21.60
8664;DHT22;4369;47.842;13.096;2023-02-15T13:14:56;38.40;21.60
8664;DHT22;4369;47.842;13.096;2023-02-15T13:17:29;38.20;21.80
8664;DHT22;4369;47.842;13.096;2023-02-15T13:20:02;37.70;22.10
8664;DHT22;4369;47.842;13.096;2023-02-15T13:22:35;36.10;22.30
8664;DHT22;4369;47.842;13.096;2023-02-15T13:25:11;36.30;22.80
8664;DHT22;4369;47.842;13.096;2023-02-15T13:27:41;34.60;22.60
8664;DHT22;4369;47.842;13.096;2023-02-15T13:30:17;33.00;23.70
8664;DHT22;4369;47.842;13.096;2023-02-15T13:32:48;32.60;24.60
8664;DHT22;4369;47.842;13.096;2023-02-15T13:35:18;32.50;24.80
8664;DHT22;4369;47.842;13.096;2023-02-15T13:37:57;30.30;25.60
8664;DHT22;4369;47.842;13.096;2023-02-15T13:40:32;27.00;27.80
8664;DHT22;4369;47.842;13.096;2023-02-15T13:43:03;25.30;29.90
8664;DHT22;4369;47.842;13.096;2023-02-15T13:45:43;23.40;32.00
8664;DHT22;4369;47.842;13.096;2023-02-15T13:48:23;22.60;33.40
8664;DHT22;4369;47.842;13.096;2023-02-15T13:51:05;22.10;33.90
8664;DHT22;4369;47.842;13.096;2023-02-15T13:56:36;20.40;35.60
8664;DHT22;4369;47.842;13.096;2023-02-15T13:59:17;21.00;35.90
8664;DHT22;4369;47.842;13.096;2023-02-15T14:01:53;22.30;34.40
8664;DHT22;4369;47.842;13.096;2023-02-15T14:05:04;23.00;33.60
8664;DHT22;4369;47.842;13.096;2023-02-15T14:07:48;23.20;33.60
8664;DHT22;4369;47.842;13.096;2023-02-15T14:10:33;23.60;32.80
8664;DHT22;4369;47.842;13.096;2023-02-15T14:13:17;23.90;32.80
8664;DHT22;4369;47.842;13.096;2023-02-15T14:15:49;23.40;32.60
8664;DHT22;4369;47.842;13.096;2023-02-15T14:18:25;23.70;33.40
8664;DHT22;4369;47.842;13.096;2023-02-15T14:21:03;24.20;32.70
8664;DHT22;4369;47.842;13.096;2023-02-15T14:23:42;24.60;32.40
8664;DHT22;4369;47.842;13.096;2023-02-15T14:26:16;24.10;32.20
8664;DHT22;4369;47.842;13.096;2023-02-15T14:28:51;24.70;32.40
8664;DHT22;4369;47.842;13.096;2023-02-15T14:31:24;23.80;32.50
8664;DHT22;4369;47.842;13.096;2023-02-15T14:33:55;24.70;32.50
8664;DHT22;4369;47.842;13.096;2023-02-15T14:36:24;24.60;32.40
8664;DHT22;4369;47.842;13.096;2023-02-15T14:39:03;24.00;32.30
8664;DHT22;4369;47.842;13.096;2023-02-15T14:41:58;23.30;33.10
8664;DHT22;4369;47.842;13.096;2023-02-15T14:44:31;23.80;33.00
8664;DHT22;4369;47.842;13.096;2023-02-15T14:47:24;23.90;32.90
8664;DHT22;4369;47.842;13.096;2023-02-15T14:49:52;23.50;33.00
8664;DHT22;4369;47.842;13.096;2023-02-15T14:52:19;22.80;33.60
8664;DHT22;4369;47.842;13.096;2023-02-15T14:54:58;23.30;33.60
8664;DHT22;4369;47.842;13.096;2023-02-15T14:57:30;23.70;33.50
8664;DHT22;4369;47.842;13.096;2023-02-15T14:59:59;23.40;33.60
8664;DHT22;4369;47.842;13.096;2023-02-15T15:02:29;23.20;33.80
8664;DHT22;4369;47.842;13.096;2023-02-15T15:05:01;22.40;34.20
8664;DHT22;4369;47.842;13.096;2023-02-15T15:07:37;19.90;36.60
8664;DHT22;4369;47.842;13.096;2023-02-15T15:13:54;16.40;42.20
8664;DHT22;4369;47.842;13.096;2023-02-15T15:16:49;15.10;45.50
8664;DHT22;4369;47.842;13.096;2023-02-15T15:22:34;13.60;50.60
8664;DHT22;4369;47.842;13.096;2023-02-15T15:25:03;12.50;54.00
8664;DHT22;4369;47.842;13.096;2023-02-15T15:30:49;11.60;60.20
8664;DHT22;4369;47.842;13.096;2023-02-15T15:40:04;10.30;79.60
8664;DHT22;4369;47.842;13.096;2023-02-15T15:42:51;10.00;86.00
8664;DHT22;4369;47.842;13.096;2023-02-15T15:45:39;9.90;90.30
8664;DHT22;4369;47.842;13.096;2023-02-15T15:48:31;9.50;92.70
8664;DHT22;4369;47.842;13.096;2023-02-15T15:51:02;9.40;94.20
8664;DHT22;4369;47.842;13.096;2023-02-15T15:53:34;9.20;95.20
8664;DHT22;4369;47.842;13.096;2023-02-15T15:56:06;9.00;96.40
8664;DHT22;4369;47.842;13.096;2023-02-15T15:58:42;8.80;98.00
8664;DHT22;4369;47.842;13.096;2023-02-15T16:01:10;8.70;98.90
8664;DHT22;4369;47.842;13.096;2023-02-15T16:03:48;8.60;99.90
8664;DHT22;4369;47.842;13.096;2023-02-15T16:06:27;8.60;99.20
8664;DHT22;4369;47.842;13.096;2023-02-15T16:08:54;8.50;99.60
8664;DHT22;4369;47.842;13.096;2023-02-15T16:11:24;8.50;99.90
8664;DHT22;4369;47.842;13.096;2023-02-15T16:13:53;8.30;99.90
8664;DHT22;4369;47.842;13.096;2023-02-15T16:16:22;8.10;99.90
8664;DHT22;4369;47.842;13.096;2023-02-15T16:18:51;8.10;99.90
8664;DHT22;4369;47.842;13.096;2023-02-15T16:21:22;8.10;99.90
8664;DHT22;4369;47.842;13.096;2023-02-15T16:24:05;8.10;99.90
8664;DHT22;4369;47.842;13.096;2023-02-15T16:26:49;8.00;99.90
8664;DHT22;4369;47.842;13.096;2023-02-15T16:29:28;7.80;99.90
8664;DHT22;4369;47.842;13.096;2023-02-15T16:31:59;7.70;99.90
8664;DHT22;4369;47.842;13.096;2023-02-15T16:34:26;7.70;99.90
8664;DHT22;4369;47.842;13.096;2023-02-15T16:37:14;7.60;99.90
8664;DHT22;4369;47.842;13.096;2023-02-15T16:39:41;7.50;99.90
8664;DHT22;4369;47.842;13.096;2023-02-15T16:42:09;7.30;99.90